sensor_id;sensor_type;location;lat;lon;timestamp;P1;durP1;ratioP1;P2;durP2;ratioP2
23714;SDS011;12036;50.858;4.472;2022-09-27T00:01:59;4.85;;;1.13;;
23714;SDS011;12036;50.858;4.472;2022-09-27T00:04:24;4.90;;;1.50;;
23714;SDS011;12036;50.858;4.472;2022-09-27T00:06:51;2.45;;;1.15;;
23714;SDS011;12036;50.858;4.472;2022-09-27T00:09:17;7.50;;;1.27;;
23714;SDS011;12036;50.858;4.472;2022-09-27T00:11:43;4.47;;;1.45;;
23714;SDS011;12036;50.858;4.472;2022-09-27T00:14:10;3.53;;;1.58;;
23714;SDS011;12036;50.858;4.472;2022-09-27T00:16:37;5.15;;;1.33;;
23714;SDS011;12036;50.858;4.472;2022-09-27T00:19:06;5.35;;;1.50;;
23714;SDS011;12036;50.858;4.472;2022-09-27T00:21:34;5.65;;;1.20;;
23714;SDS011;12036;50.858;4.472;2022-09-27T00:24:00;9.20;;;0.90;;
23714;SDS011;12036;50.858;4.472;2022-09-27T00:26:26;6.03;;;1.10;;
23714;SDS011;12036;50.858;4.472;2022-09-27T00:28:52;4.05;;;0.98;;
23714;SDS011;12036;50.858;4.472;2022-09-27T00:31:24;4.47;;;0.70;;
23714;SDS011;12036;50.858;4.472;2022-09-27T00:33:53;2.92;;;0.88;;
23714;SDS011;12036;50.858;4.472;2022-09-27T00:36:19;6.53;;;0.60;;
23714;SDS011;12036;50.858;4.472;2022-09-27T00:38:46;9.45;;;0.93;;
23714;SDS011;12036;50.858;4.472;2022-09-27T00:41:13;1.40;;;0.50;;
23714;SDS011;12036;50.858;4.472;2022-09-27T00:43:46;2.30;;;0.70;;
23714;SDS011;12036;50.858;4.472;2022-09-27T00:46:27;9.05;;;1.27;;
23714;SDS011;12036;50.858;4.472;2022-09-27T00:49:04;2.83;;;0.63;;
23714;SDS011;12036;50.858;4.472;2022-09-27T00:51:36;4.15;;;0.60;;
23714;SDS011;12036;50.858;4.472;2022-09-27T00:54:04;4.05;;;0.60;;
23714;SDS011;12036;50.858;4.472;2022-09-27T00:56:31;3.95;;;0.63;;
23714;SDS011;12036;50.858;4.472;2022-09-27T00:59:05;2.70;;;0.57;;
23714;SDS011;12036;50.858;4.472;2022-09-27T01:01:43;3.15;;;0.75;;
23714;SDS011;12036;50.858;4.472;2022-09-27T01:04:10;4.63;;;0.60;;
23714;SDS011;12036;50.858;4.472;2022-09-27T01:06:38;2.88;;;0.70;;
23714;SDS011;12036;50.858;4.472;2022-09-27T01:09:05;7.80;;;0.70;;
23714;SDS011;12036;50.858;4.472;2022-09-27T01:14:40;5.78;;;0.60;;
23714;SDS011;12036;50.858;4.472;2022-09-27T01:17:04;3.60;;;0.75;;
23714;SDS011;12036;50.858;4.472;2022-09-27T01:27:35;2.50;;;0.63;;
23714;SDS011;12036;50.858;4.472;2022-09-27T01:30:28;4.68;;;0.80;;
23714;SDS011;12036;50.858;4.472;2022-09-27T01:39:19;8.02;;;0.52;;
23714;SDS011;12036;50.858;4.472;2022-09-27T01:42:16;5.00;;;0.57;;
23714;SDS011;12036;50.858;4.472;2022-09-27T01:44:54;3.45;;;0.88;;
23714;SDS011;12036;50.858;4.472;2022-09-27T01:47:30;4.55;;;0.90;;
23714;SDS011;12036;50.858;4.472;2022-09-27T01:50:06;2.78;;;0.63;;
23714;SDS011;12036;50.858;4.472;2022-09-27T01:53:04;1.63;;;0.50;;
23714;SDS011;12036;50.858;4.472;2022-09-27T01:55:36;6.28;;;1.05;;
23714;SDS011;12036;50.858;4.472;2022-09-27T01:58:11;3.38;;;0.40;;
23714;SDS011;12036;50.858;4.472;2022-09-27T02:00:42;2.53;;;0.80;;
23714;SDS011;12036;50.858;4.472;2022-09-27T02:03:12;4.28;;;0.77;;
23714;SDS011;12036;50.858;4.472;2022-09-27T02:05:43;13.13;;;0.88;;
23714;SDS011;12036;50.858;4.472;2022-09-27T02:08:25;3.17;;;0.93;;
23714;SDS011;12036;50.858;4.472;2022-09-27T02:10:53;4.28;;;0.90;;
23714;SDS011;12036;50.858;4.472;2022-09-27T02:13:33;5.20;;;0.82;;
23714;SDS011;12036;50.858;4.472;2022-09-27T02:16:31;6.32;;;0.93;;
23714;SDS011;12036;50.858;4.472;2022-09-27T02:19:10;3.75;;;0.88;;
23714;SDS011;12036;50.858;4.472;2022-09-27T02:24:32;1.95;;;0.63;;
23714;SDS011;12036;50.858;4.472;2022-09-27T02:27:17;4.07;;;0.55;;
23714;SDS011;12036;50.858;4.472;2022-09-27T02:29:57;1.70;;;0.70;;
23714;SDS011;12036;50.858;4.472;2022-09-27T02:32:30;5.05;;;0.70;;
23714;SDS011;12036;50.858;4.472;2022-09-27T02:34:57;1.60;;;0.63;;
23714;SDS011;12036;50.858;4.472;2022-09-27T02:37:24;2.30;;;0.50;;
23714;SDS011;12036;50.858;4.472;2022-09-27T02:39:50;2.35;;;0.60;;
23714;SDS011;12036;50.858;4.472;2022-09-27T02:42:16;3.80;;;0.47;;
23714;SDS011;12036;50.858;4.472;2022-09-27T02:44:42;7.82;;;0.60;;
23714;SDS011;12036;50.858;4.472;2022-09-27T02:49:53;4.13;;;0.50;;
23714;SDS011;12036;50.858;4.472;2022-09-27T03:01:01;1.20;;;0.50;;
23714;SDS011;12036;50.858;4.472;2022-09-27T03:03:38;4.88;;;0.40;;
23714;SDS011;12036;50.858;4.472;2022-09-27T03:06:11;4.82;;;0.43;;
23714;SDS011;12036;50.858;4.472;2022-09-27T03:08:40;0.80;;;0.50;;
23714;SDS011;12036;50.858;4.472;2022-09-27T03:11:07;7.43;;;0.60;;
23714;SDS011;12036;50.858;4.472;2022-09-27T03:13:33;2.13;;;0.60;;
23714;SDS011;12036;50.858;4.472;2022-09-27T03:16:00;2.50;;;0.77;;
23714;SDS011;12036;50.858;4.472;2022-09-27T03:18:26;5.78;;;0.60;;
23714;SDS011;12036;50.858;4.472;2022-09-27T03:20:52;3.60;;;0.70;;
23714;SDS011;12036;50.858;4.472;2022-09-27T03:23:18;5.00;;;0.65;;
23714;SDS011;12036;50.858;4.472;2022-09-27T03:25:44;1.27;;;0.82;;
23714;SDS011;12036;50.858;4.472;2022-09-27T03:28:10;3.25;;;0.80;;
23714;SDS011;12036;50.858;4.472;2022-09-27T03:30:36;2.95;;;0.80;;
23714;SDS011;12036;50.858;4.472;2022-09-27T03:33:02;3.83;;;0.73;;
23714;SDS011;12036;50.858;4.472;2022-09-27T03:35:28;4.15;;;0.85;;
23714;SDS011;12036;50.858;4.472;2022-09-27T03:37:54;8.55;;;0.93;;
23714;SDS011;12036;50.858;4.472;2022-09-27T03:40:19;3.35;;;0.90;;
23714;SDS011;12036;50.858;4.472;2022-09-27T03:42:45;2.22;;;0.68;;
23714;SDS011;12036;50.858;4.472;2022-09-27T03:45:11;3.10;;;0.70;;
23714;SDS011;12036;50.858;4.472;2022-09-27T03:47:40;1.25;;;0.90;;
23714;SDS011;12036;50.858;4.472;2022-09-27T03:50:06;6.30;;;0.90;;
23714;SDS011;12036;50.858;4.472;2022-09-27T03:52:33;2.55;;;0.70;;
23714;SDS011;12036;50.858;4.472;2022-09-27T03:54:59;4.63;;;1.55;;
23714;SDS011;12036;50.858;4.472;2022-09-27T03:57:25;2.63;;;1.00;;
23714;SDS011;12036;50.858;4.472;2022-09-27T03:59:51;5.28;;;1.00;;
23714;SDS011;12036;50.858;4.472;2022-09-27T04:02:16;5.00;;;0.90;;
23714;SDS011;12036;50.858;4.472;2022-09-27T04:04:42;3.83;;;1.00;;
23714;SDS011;12036;50.858;4.472;2022-09-27T04:07:09;5.90;;;1.23;;
23714;SDS011;12036;50.858;4.472;2022-09-27T04:09:35;3.30;;;0.82;;
23714;SDS011;12036;50.858;4.472;2022-09-27T04:12:02;3.35;;;1.10;;
23714;SDS011;12036;50.858;4.472;2022-09-27T04:14:28;7.57;;;1.40;;
23714;SDS011;12036;50.858;4.472;2022-09-27T04:16:54;5.75;;;1.10;;
23714;SDS011;12036;50.858;4.472;2022-09-27T04:19:19;3.08;;;1.00;;
23714;SDS011;12036;50.858;4.472;2022-09-27T04:21:45;2.08;;;0.77;;
23714;SDS011;12036;50.858;4.472;2022-09-27T04:24:11;5.25;;;0.90;;
23714;SDS011;12036;50.858;4.472;2022-09-27T04:26:37;5.43;;;1.38;;
23714;SDS011;12036;50.858;4.472;2022-09-27T04:29:04;4.18;;;1.08;;
23714;SDS011;12036;50.858;4.472;2022-09-27T04:31:30;3.95;;;1.10;;
23714;SDS011;12036;50.858;4.472;2022-09-27T04:33:56;2.63;;;0.93;;
23714;SDS011;12036;50.858;4.472;2022-09-27T04:36:22;4.40;;;1.30;;
23714;SDS011;12036;50.858;4.472;2022-09-27T04:38:50;3.90;;;1.25;;
23714;SDS011;12036;50.858;4.472;2022-09-27T04:41:17;5.53;;;1.50;;
23714;SDS011;12036;50.858;4.472;2022-09-27T04:43:43;4.20;;;1.48;;
23714;SDS011;12036;50.858;4.472;2022-09-27T04:46:09;5.18;;;1.40;;
23714;SDS011;12036;50.858;4.472;2022-09-27T04:48:34;3.38;;;1.20;;
23714;SDS011;12036;50.858;4.472;2022-09-27T04:51:01;3.38;;;1.73;;
23714;SDS011;12036;50.858;4.472;2022-09-27T04:53:27;3.38;;;1.90;;
23714;SDS011;12036;50.858;4.472;2022-09-27T04:55:56;1.48;;;1.38;;
23714;SDS011;12036;50.858;4.472;2022-09-27T04:58:22;6.05;;;2.03;;
23714;SDS011;12036;50.858;4.472;2022-09-27T05:00:49;3.33;;;1.92;;
23714;SDS011;12036;50.858;4.472;2022-09-27T05:03:19;4.53;;;2.20;;
23714;SDS011;12036;50.858;4.472;2022-09-27T05:05:46;5.47;;;2.67;;
23714;SDS011;12036;50.858;4.472;2022-09-27T05:08:12;5.22;;;2.55;;
23714;SDS011;12036;50.858;4.472;2022-09-27T05:10:38;6.18;;;3.17;;
23714;SDS011;12036;50.858;4.472;2022-09-27T05:13:04;6.13;;;3.20;;
23714;SDS011;12036;50.858;4.472;2022-09-27T05:15:30;8.05;;;3.25;;
23714;SDS011;12036;50.858;4.472;2022-09-27T05:17:56;4.13;;;3.08;;
23714;SDS011;12036;50.858;4.472;2022-09-27T05:20:23;7.22;;;3.17;;
23714;SDS011;12036;50.858;4.472;2022-09-27T05:22:49;4.43;;;3.05;;
23714;SDS011;12036;50.858;4.472;2022-09-27T05:25:15;8.55;;;3.03;;
23714;SDS011;12036;50.858;4.472;2022-09-27T05:27:41;7.55;;;2.75;;
23714;SDS011;12036;50.858;4.472;2022-09-27T05:30:07;5.82;;;2.90;;
23714;SDS011;12036;50.858;4.472;2022-09-27T05:32:33;3.95;;;2.35;;
23714;SDS011;12036;50.858;4.472;2022-09-27T05:34:59;5.63;;;2.90;;
23714;SDS011;12036;50.858;4.472;2022-09-27T05:37:25;5.15;;;2.80;;
23714;SDS011;12036;50.858;4.472;2022-09-27T05:39:51;5.90;;;2.97;;
23714;SDS011;12036;50.858;4.472;2022-09-27T05:42:16;3.65;;;2.95;;
23714;SDS011;12036;50.858;4.472;2022-09-27T05:44:43;5.45;;;3.20;;
23714;SDS011;12036;50.858;4.472;2022-09-27T05:47:11;5.00;;;2.72;;
23714;SDS011;12036;50.858;4.472;2022-09-27T05:49:37;4.93;;;2.92;;
23714;SDS011;12036;50.858;4.472;2022-09-27T05:52:04;4.30;;;2.92;;
23714;SDS011;12036;50.858;4.472;2022-09-27T05:54:30;15.05;;;3.35;;
23714;SDS011;12036;50.858;4.472;2022-09-27T05:56:56;6.53;;;2.92;;
23714;SDS011;12036;50.858;4.472;2022-09-27T05:59:26;3.95;;;2.97;;
23714;SDS011;12036;50.858;4.472;2022-09-27T06:01:52;4.90;;;2.83;;
23714;SDS011;12036;50.858;4.472;2022-09-27T06:04:19;6.13;;;3.08;;
23714;SDS011;12036;50.858;4.472;2022-09-27T06:06:45;5.32;;;2.60;;
23714;SDS011;12036;50.858;4.472;2022-09-27T06:09:12;3.17;;;2.50;;
23714;SDS011;12036;50.858;4.472;2022-09-27T06:11:39;6.93;;;2.60;;
23714;SDS011;12036;50.858;4.472;2022-09-27T06:14:05;6.43;;;2.63;;
23714;SDS011;12036;50.858;4.472;2022-09-27T06:16:30;3.67;;;2.22;;
23714;SDS011;12036;50.858;4.472;2022-09-27T06:18:56;5.75;;;2.35;;
23714;SDS011;12036;50.858;4.472;2022-09-27T06:21:22;4.50;;;2.83;;
23714;SDS011;12036;50.858;4.472;2022-09-27T06:23:48;5.82;;;2.70;;
23714;SDS011;12036;50.858;4.472;2022-09-27T06:26:14;8.10;;;2.35;;
23714;SDS011;12036;50.858;4.472;2022-09-27T06:28:40;5.57;;;2.60;;
23714;SDS011;12036;50.858;4.472;2022-09-27T06:31:06;3.67;;;2.55;;
23714;SDS011;12036;50.858;4.472;2022-09-27T06:33:35;5.25;;;2.78;;
23714;SDS011;12036;50.858;4.472;2022-09-27T06:36:02;6.20;;;2.60;;
23714;SDS011;12036;50.858;4.472;2022-09-27T06:38:29;8.30;;;2.50;;
23714;SDS011;12036;50.858;4.472;2022-09-27T06:40:54;9.82;;;2.90;;
23714;SDS011;12036;50.858;4.472;2022-09-27T06:43:22;4.32;;;2.53;;
23714;SDS011;12036;50.858;4.472;2022-09-27T06:45:48;4.10;;;2.60;;
23714;SDS011;12036;50.858;4.472;2022-09-27T06:48:15;8.38;;;2.70;;
23714;SDS011;12036;50.858;4.472;2022-09-27T06:50:41;4.70;;;2.55;;
23714;SDS011;12036;50.858;4.472;2022-09-27T06:53:10;6.15;;;2.85;;
23714;SDS011;12036;50.858;4.472;2022-09-27T06:55:37;3.60;;;2.35;;
23714;SDS011;12036;50.858;4.472;2022-09-27T06:58:04;6.10;;;2.65;;
23714;SDS011;12036;50.858;4.472;2022-09-27T07:00:51;3.28;;;2.40;;
23714;SDS011;12036;50.858;4.472;2022-09-27T07:03:18;4.00;;;2.70;;
23714;SDS011;12036;50.858;4.472;2022-09-27T07:05:53;5.93;;;2.63;;
23714;SDS011;12036;50.858;4.472;2022-09-27T07:08:26;6.70;;;3.17;;
23714;SDS011;12036;50.858;4.472;2022-09-27T07:10:59;5.43;;;2.88;;
23714;SDS011;12036;50.858;4.472;2022-09-27T07:13:26;6.10;;;3.35;;
23714;SDS011;12036;50.858;4.472;2022-09-27T07:15:55;6.95;;;3.00;;
23714;SDS011;12036;50.858;4.472;2022-09-27T07:18:21;5.45;;;3.15;;
23714;SDS011;12036;50.858;4.472;2022-09-27T07:20:47;6.20;;;3.20;;
23714;SDS011;12036;50.858;4.472;2022-09-27T07:23:13;7.13;;;3.15;;
23714;SDS011;12036;50.858;4.472;2022-09-27T07:25:39;7.95;;;2.80;;
23714;SDS011;12036;50.858;4.472;2022-09-27T07:28:05;5.82;;;3.05;;
23714;SDS011;12036;50.858;4.472;2022-09-27T07:30:32;5.05;;;3.03;;
23714;SDS011;12036;50.858;4.472;2022-09-27T07:32:59;5.20;;;3.40;;
23714;SDS011;12036;50.858;4.472;2022-09-27T07:35:26;9.18;;;3.22;;
23714;SDS011;12036;50.858;4.472;2022-09-27T07:37:52;3.47;;;2.95;;
23714;SDS011;12036;50.858;4.472;2022-09-27T07:40:20;4.22;;;3.15;;
23714;SDS011;12036;50.858;4.472;2022-09-27T07:42:46;6.05;;;3.28;;
23714;SDS011;12036;50.858;4.472;2022-09-27T07:45:11;5.13;;;2.97;;
23714;SDS011;12036;50.858;4.472;2022-09-27T07:47:38;3.13;;;2.58;;
23714;SDS011;12036;50.858;4.472;2022-09-27T07:50:05;5.82;;;2.80;;
23714;SDS011;12036;50.858;4.472;2022-09-27T07:52:41;9.18;;;2.85;;
23714;SDS011;12036;50.858;4.472;2022-09-27T07:55:09;3.80;;;2.40;;
23714;SDS011;12036;50.858;4.472;2022-09-27T07:57:36;5.95;;;2.47;;
23714;SDS011;12036;50.858;4.472;2022-09-27T08:00:06;4.25;;;2.65;;
23714;SDS011;12036;50.858;4.472;2022-09-27T08:02:36;5.55;;;2.60;;
23714;SDS011;12036;50.858;4.472;2022-09-27T08:05:02;3.22;;;2.28;;
23714;SDS011;12036;50.858;4.472;2022-09-27T08:07:28;8.07;;;2.40;;
23714;SDS011;12036;50.858;4.472;2022-09-27T08:09:54;4.80;;;2.33;;
23714;SDS011;12036;50.858;4.472;2022-09-27T08:12:19;1.95;;;1.70;;
23714;SDS011;12036;50.858;4.472;2022-09-27T08:14:49;3.25;;;1.90;;
23714;SDS011;12036;50.858;4.472;2022-09-27T08:17:15;7.32;;;2.45;;
23714;SDS011;12036;50.858;4.472;2022-09-27T08:19:42;6.00;;;2.17;;
23714;SDS011;12036;50.858;4.472;2022-09-27T08:22:09;2.60;;;2.15;;
23714;SDS011;12036;50.858;4.472;2022-09-27T08:24:38;5.00;;;2.40;;
23714;SDS011;12036;50.858;4.472;2022-09-27T08:27:04;4.75;;;2.20;;
23714;SDS011;12036;50.858;4.472;2022-09-27T08:29:31;7.57;;;2.42;;
23714;SDS011;12036;50.858;4.472;2022-09-27T08:31:56;5.43;;;2.30;;
23714;SDS011;12036;50.858;4.472;2022-09-27T08:34:22;6.53;;;2.30;;
23714;SDS011;12036;50.858;4.472;2022-09-27T08:36:48;3.08;;;1.90;;
23714;SDS011;12036;50.858;4.472;2022-09-27T08:39:14;9.43;;;2.42;;
23714;SDS011;12036;50.858;4.472;2022-09-27T08:47:04;3.53;;;2.25;;
23714;SDS011;12036;50.858;4.472;2022-09-27T08:49:42;5.53;;;1.88;;
23714;SDS011;12036;50.858;4.472;2022-09-27T08:55:43;4.85;;;2.00;;
23714;SDS011;12036;50.858;4.472;2022-09-27T08:58:03;6.32;;;1.40;;
23714;SDS011;12036;50.858;4.472;2022-09-27T09:00:40;4.55;;;1.40;;
23714;SDS011;12036;50.858;4.472;2022-09-27T09:03:09;3.92;;;1.27;;
23714;SDS011;12036;50.858;4.472;2022-09-27T09:05:43;2.75;;;1.20;;
23714;SDS011;12036;50.858;4.472;2022-09-27T09:14:28;2.15;;;1.17;;
23714;SDS011;12036;50.858;4.472;2022-09-27T09:17:17;2.45;;;1.33;;
23714;SDS011;12036;50.858;4.472;2022-09-27T09:31:09;4.40;;;1.40;;
23714;SDS011;12036;50.858;4.472;2022-09-27T09:33:56;4.85;;;1.10;;
23714;SDS011;12036;50.858;4.472;2022-09-27T09:36:46;2.22;;;1.42;;
23714;SDS011;12036;50.858;4.472;2022-09-27T09:42:09;7.47;;;1.50;;
23714;SDS011;12036;50.858;4.472;2022-09-27T09:47:32;4.57;;;1.40;;
23714;SDS011;12036;50.858;4.472;2022-09-27T09:50:05;6.70;;;1.52;;
23714;SDS011;12036;50.858;4.472;2022-09-27T09:53:09;4.68;;;1.38;;
23714;SDS011;12036;50.858;4.472;2022-09-27T09:55:39;1.67;;;1.10;;
23714;SDS011;12036;50.858;4.472;2022-09-27T10:00:51;7.55;;;1.70;;
23714;SDS011;12036;50.858;4.472;2022-09-27T10:03:20;4.50;;;1.50;;
23714;SDS011;12036;50.858;4.472;2022-09-27T10:05:46;3.55;;;1.60;;
23714;SDS011;12036;50.858;4.472;2022-09-27T10:08:19;3.67;;;1.77;;
23714;SDS011;12036;50.858;4.472;2022-09-27T10:10:46;3.63;;;1.90;;
23714;SDS011;12036;50.858;4.472;2022-09-27T10:13:15;5.47;;;1.60;;
23714;SDS011;12036;50.858;4.472;2022-09-27T10:15:52;4.82;;;1.67;;
23714;SDS011;12036;50.858;4.472;2022-09-27T10:18:26;6.43;;;1.73;;
23714;SDS011;12036;50.858;4.472;2022-09-27T10:20:54;6.05;;;1.80;;
23714;SDS011;12036;50.858;4.472;2022-09-27T10:23:23;7.75;;;2.00;;
23714;SDS011;12036;50.858;4.472;2022-09-27T10:28:27;3.00;;;1.70;;
23714;SDS011;12036;50.858;4.472;2022-09-27T10:31:00;3.80;;;1.58;;
23714;SDS011;12036;50.858;4.472;2022-09-27T10:33:51;3.55;;;1.70;;
23714;SDS011;12036;50.858;4.472;2022-09-27T10:36:23;2.53;;;2.00;;
23714;SDS011;12036;50.858;4.472;2022-09-27T10:38:54;4.55;;;1.50;;
23714;SDS011;12036;50.858;4.472;2022-09-27T10:44:22;6.93;;;1.92;;
23714;SDS011;12036;50.858;4.472;2022-09-27T10:46:54;5.78;;;1.88;;
23714;SDS011;12036;50.858;4.472;2022-09-27T10:51:52;5.50;;;1.52;;
23714;SDS011;12036;50.858;4.472;2022-09-27T10:57:02;5.90;;;2.17;;
23714;SDS011;12036;50.858;4.472;2022-09-27T10:59:33;4.63;;;1.90;;
23714;SDS011;12036;50.858;4.472;2022-09-27T11:02:03;8.10;;;1.73;;
23714;SDS011;12036;50.858;4.472;2022-09-27T11:04:32;6.43;;;1.50;;
23714;SDS011;12036;50.858;4.472;2022-09-27T11:07:33;11.32;;;1.52;;
23714;SDS011;12036;50.858;4.472;2022-09-27T11:09:52;7.50;;;1.90;;
23714;SDS011;12036;50.858;4.472;2022-09-27T11:12:20;8.20;;;1.85;;
23714;SDS011;12036;50.858;4.472;2022-09-27T11:14:51;4.18;;;1.80;;
23714;SDS011;12036;50.858;4.472;2022-09-27T11:20:24;6.03;;;1.40;;
23714;SDS011;12036;50.858;4.472;2022-09-27T11:23:03;3.25;;;1.40;;
23714;SDS011;12036;50.858;4.472;2022-09-27T11:39:27;2.97;;;0.98;;
23714;SDS011;12036;50.858;4.472;2022-09-27T11:45:24;3.13;;;0.82;;
23714;SDS011;12036;50.858;4.472;2022-09-27T11:48:13;6.32;;;0.75;;
23714;SDS011;12036;50.858;4.472;2022-09-27T11:56:19;1.80;;;0.60;;
23714;SDS011;12036;50.858;4.472;2022-09-27T11:59:04;0.85;;;0.40;;
23714;SDS011;12036;50.858;4.472;2022-09-27T12:01:55;4.55;;;0.63;;
23714;SDS011;12036;50.858;4.472;2022-09-27T12:09:45;5.00;;;0.60;;
23714;SDS011;12036;50.858;4.472;2022-09-27T12:12:18;1.85;;;0.80;;
23714;SDS011;12036;50.858;4.472;2022-09-27T12:14:52;2.22;;;0.63;;
23714;SDS011;12036;50.858;4.472;2022-09-27T12:17:35;4.32;;;0.77;;
23714;SDS011;12036;50.858;4.472;2022-09-27T12:23:02;3.63;;;0.50;;
23714;SDS011;12036;50.858;4.472;2022-09-27T12:25:33;7.65;;;0.80;;
23714;SDS011;12036;50.858;4.472;2022-09-27T12:30:55;4.55;;;0.75;;
23714;SDS011;12036;50.858;4.472;2022-09-27T12:36:35;6.40;;;0.93;;
23714;SDS011;12036;50.858;4.472;2022-09-27T12:39:18;3.38;;;1.08;;
23714;SDS011;12036;50.858;4.472;2022-09-27T12:41:57;8.65;;;0.93;;
23714;SDS011;12036;50.858;4.472;2022-09-27T12:44:32;4.78;;;1.30;;
23714;SDS011;12036;50.858;4.472;2022-09-27T12:47:10;2.60;;;1.17;;
23714;SDS011;12036;50.858;4.472;2022-09-27T12:50:00;4.57;;;1.20;;
23714;SDS011;12036;50.858;4.472;2022-09-27T12:52:41;4.28;;;1.35;;
23714;SDS011;12036;50.858;4.472;2022-09-27T12:58:30;4.95;;;1.00;;
23714;SDS011;12036;50.858;4.472;2022-09-27T13:07:02;3.30;;;1.50;;
23714;SDS011;12036;50.858;4.472;2022-09-27T13:09:43;3.28;;;1.55;;
23714;SDS011;12036;50.858;4.472;2022-09-27T13:12:29;3.58;;;1.05;;
23714;SDS011;12036;50.858;4.472;2022-09-27T13:14:58;4.60;;;1.38;;
23714;SDS011;12036;50.858;4.472;2022-09-27T13:17:49;4.00;;;1.45;;
23714;SDS011;12036;50.858;4.472;2022-09-27T13:20:31;6.57;;;1.10;;
23714;SDS011;12036;50.858;4.472;2022-09-27T13:25:46;1.83;;;0.70;;
23714;SDS011;12036;50.858;4.472;2022-09-27T13:31:05;3.17;;;0.88;;
23714;SDS011;12036;50.858;4.472;2022-09-27T13:33:40;2.53;;;0.85;;
23714;SDS011;12036;50.858;4.472;2022-09-27T13:41:22;6.45;;;0.75;;
23714;SDS011;12036;50.858;4.472;2022-09-27T13:44:03;2.75;;;0.90;;
23714;SDS011;12036;50.858;4.472;2022-09-27T13:51:57;2.55;;;0.57;;
23714;SDS011;12036;50.858;4.472;2022-09-27T13:57:37;1.83;;;0.70;;
23714;SDS011;12036;50.858;4.472;2022-09-27T14:00:00;9.27;;;1.25;;
23714;SDS011;12036;50.858;4.472;2022-09-27T14:05:33;2.55;;;0.80;;
23714;SDS011;12036;50.858;4.472;2022-09-27T14:08:02;6.88;;;1.20;;
23714;SDS011;12036;50.858;4.472;2022-09-27T14:10:30;1.77;;;0.88;;
23714;SDS011;12036;50.858;4.472;2022-09-27T14:12:57;3.05;;;1.60;;
23714;SDS011;12036;50.858;4.472;2022-09-27T14:15:26;5.07;;;1.02;;
23714;SDS011;12036;50.858;4.472;2022-09-27T14:17:54;4.45;;;1.20;;
23714;SDS011;12036;50.858;4.472;2022-09-27T14:23:05;5.15;;;1.70;;
23714;SDS011;12036;50.858;4.472;2022-09-27T14:25:31;5.47;;;2.00;;
23714;SDS011;12036;50.858;4.472;2022-09-27T14:27:57;5.18;;;1.05;;
23714;SDS011;12036;50.858;4.472;2022-09-27T14:30:25;6.00;;;1.35;;
23714;SDS011;12036;50.858;4.472;2022-09-27T14:32:52;5.68;;;1.40;;
23714;SDS011;12036;50.858;4.472;2022-09-27T14:35:20;4.88;;;1.35;;
23714;SDS011;12036;50.858;4.472;2022-09-27T14:38:16;5.78;;;1.45;;
23714;SDS011;12036;50.858;4.472;2022-09-27T14:41:05;6.13;;;1.40;;
23714;SDS011;12036;50.858;4.472;2022-09-27T14:43:32;9.73;;;2.47;;
23714;SDS011;12036;50.858;4.472;2022-09-27T14:46:01;5.53;;;1.70;;
23714;SDS011;12036;50.858;4.472;2022-09-27T14:51:15;5.65;;;1.35;;
23714;SDS011;12036;50.858;4.472;2022-09-27T14:53:46;5.40;;;1.20;;
23714;SDS011;12036;50.858;4.472;2022-09-27T14:56:17;5.18;;;1.30;;
23714;SDS011;12036;50.858;4.472;2022-09-27T14:58:47;4.38;;;1.50;;
23714;SDS011;12036;50.858;4.472;2022-09-27T15:01:17;6.07;;;1.42;;
23714;SDS011;12036;50.858;4.472;2022-09-27T15:03:44;5.90;;;1.45;;
23714;SDS011;12036;50.858;4.472;2022-09-27T15:06:13;6.30;;;1.30;;
23714;SDS011;12036;50.858;4.472;2022-09-27T15:08:40;5.72;;;1.75;;
23714;SDS011;12036;50.858;4.472;2022-09-27T15:11:06;6.57;;;1.50;;
23714;SDS011;12036;50.858;4.472;2022-09-27T15:13:34;6.22;;;1.80;;
23714;SDS011;12036;50.858;4.472;2022-09-27T15:16:06;3.58;;;1.30;;
23714;SDS011;12036;50.858;4.472;2022-09-27T15:21:04;5.18;;;1.40;;
23714;SDS011;12036;50.858;4.472;2022-09-27T15:23:37;3.78;;;1.33;;
23714;SDS011;12036;50.858;4.472;2022-09-27T15:26:21;4.70;;;1.40;;
23714;SDS011;12036;50.858;4.472;2022-09-27T15:29:00;14.82;;;1.65;;
23714;SDS011;12036;50.858;4.472;2022-09-27T15:31:30;5.13;;;1.40;;
23714;SDS011;12036;50.858;4.472;2022-09-27T15:34:00;5.22;;;1.35;;
23714;SDS011;12036;50.858;4.472;2022-09-27T15:39:11;5.72;;;1.30;;
23714;SDS011;12036;50.858;4.472;2022-09-27T15:52:40;3.28;;;1.35;;
23714;SDS011;12036;50.858;4.472;2022-09-27T15:55:19;7.00;;;1.45;;
23714;SDS011;12036;50.858;4.472;2022-09-27T15:57:50;6.80;;;1.20;;
23714;SDS011;12036;50.858;4.472;2022-09-27T16:00:23;3.60;;;0.90;;
23714;SDS011;12036;50.858;4.472;2022-09-27T16:02:50;1.98;;;0.90;;
23714;SDS011;12036;50.858;4.472;2022-09-27T16:05:16;2.67;;;0.77;;
23714;SDS011;12036;50.858;4.472;2022-09-27T16:07:42;3.58;;;1.02;;
23714;SDS011;12036;50.858;4.472;2022-09-27T16:13:14;4.43;;;0.90;;
23714;SDS011;12036;50.858;4.472;2022-09-27T16:15:39;2.72;;;1.00;;
23714;SDS011;12036;50.858;4.472;2022-09-27T16:18:05;3.95;;;0.88;;
23714;SDS011;12036;50.858;4.472;2022-09-27T16:20:31;2.05;;;0.73;;
23714;SDS011;12036;50.858;4.472;2022-09-27T16:22:57;2.40;;;1.00;;
23714;SDS011;12036;50.858;4.472;2022-09-27T16:25:23;4.32;;;1.00;;
23714;SDS011;12036;50.858;4.472;2022-09-27T16:27:49;2.67;;;1.00;;
23714;SDS011;12036;50.858;4.472;2022-09-27T16:30:15;2.53;;;0.90;;
23714;SDS011;12036;50.858;4.472;2022-09-27T16:32:42;2.67;;;0.90;;
23714;SDS011;12036;50.858;4.472;2022-09-27T16:35:09;6.13;;;1.17;;
23714;SDS011;12036;50.858;4.472;2022-09-27T16:37:35;6.88;;;1.40;;
23714;SDS011;12036;50.858;4.472;2022-09-27T16:40:02;6.45;;;1.40;;
23714;SDS011;12036;50.858;4.472;2022-09-27T16:42:29;4.05;;;1.50;;
23714;SDS011;12036;50.858;4.472;2022-09-27T16:44:55;3.45;;;1.40;;
23714;SDS011;12036;50.858;4.472;2022-09-27T16:47:20;7.45;;;1.33;;
23714;SDS011;12036;50.858;4.472;2022-09-27T16:49:46;2.25;;;1.23;;
23714;SDS011;12036;50.858;4.472;2022-09-27T16:52:30;3.10;;;1.35;;
23714;SDS011;12036;50.858;4.472;2022-09-27T16:54:59;6.97;;;1.50;;
23714;SDS011;12036;50.858;4.472;2022-09-27T16:57:25;4.28;;;1.65;;
23714;SDS011;12036;50.858;4.472;2022-09-27T16:59:54;5.85;;;1.60;;
23714;SDS011;12036;50.858;4.472;2022-09-27T17:02:22;2.90;;;1.83;;
23714;SDS011;12036;50.858;4.472;2022-09-27T17:04:49;4.13;;;2.08;;
23714;SDS011;12036;50.858;4.472;2022-09-27T17:07:15;7.45;;;2.28;;
23714;SDS011;12036;50.858;4.472;2022-09-27T17:09:40;4.35;;;2.28;;
23714;SDS011;12036;50.858;4.472;2022-09-27T17:12:06;4.60;;;2.20;;
23714;SDS011;12036;50.858;4.472;2022-09-27T17:14:32;5.60;;;2.15;;
23714;SDS011;12036;50.858;4.472;2022-09-27T17:16:57;6.13;;;2.28;;
23714;SDS011;12036;50.858;4.472;2022-09-27T17:19:23;3.88;;;2.30;;
23714;SDS011;12036;50.858;4.472;2022-09-27T17:21:49;9.20;;;3.67;;
23714;SDS011;12036;50.858;4.472;2022-09-27T17:24:15;7.90;;;3.47;;
23714;SDS011;12036;50.858;4.472;2022-09-27T17:26:41;7.28;;;3.92;;
23714;SDS011;12036;50.858;4.472;2022-09-27T17:29:11;4.90;;;2.38;;
23714;SDS011;12036;50.858;4.472;2022-09-27T17:31:38;6.38;;;2.88;;
23714;SDS011;12036;50.858;4.472;2022-09-27T17:34:04;6.55;;;3.95;;
23714;SDS011;12036;50.858;4.472;2022-09-27T17:36:31;8.43;;;4.50;;
23714;SDS011;12036;50.858;4.472;2022-09-27T17:39:01;4.95;;;3.95;;
23714;SDS011;12036;50.858;4.472;2022-09-27T17:41:28;9.50;;;4.20;;
23714;SDS011;12036;50.858;4.472;2022-09-27T17:43:57;6.95;;;4.55;;
23714;SDS011;12036;50.858;4.472;2022-09-27T17:46:31;8.27;;;4.25;;
23714;SDS011;12036;50.858;4.472;2022-09-27T17:48:58;8.10;;;4.20;;
23714;SDS011;12036;50.858;4.472;2022-09-27T17:51:45;15.30;;;8.35;;
23714;SDS011;12036;50.858;4.472;2022-09-27T17:54:12;25.77;;;11.68;;
23714;SDS011;12036;50.858;4.472;2022-09-27T17:56:39;15.25;;;6.85;;
23714;SDS011;12036;50.858;4.472;2022-09-27T17:59:06;10.60;;;5.00;;